createdAt,value
2022-12-22T00:03:34.293Z,7.90
2022-12-22T00:09:55.075Z,7.05
2022-12-22T00:16:17.095Z,8.13
2022-12-22T00:22:43.338Z,8.77
2022-12-22T00:29:04.062Z,8.63
2022-12-22T00:35:30.336Z,7.38
2022-12-22T00:48:41.794Z,8.32
2022-12-22T00:55:07.311Z,8.65
2022-12-22T01:01:33.731Z,7.78
2022-12-22T01:07:55.566Z,7.07
2022-12-22T01:14:16.031Z,7.90
2022-12-22T01:20:36.562Z,8.07
2022-12-22T01:26:56.891Z,7.30
2022-12-22T01:33:17.247Z,8.45
2022-12-22T01:39:37.919Z,7.65
2022-12-22T01:45:58.644Z,8.30
2022-12-22T01:52:20.092Z,8.40
2022-12-22T01:58:46.695Z,8.07
2022-12-22T02:05:07.633Z,7.10
2022-12-22T02:12:11.428Z,7.57
2022-12-22T02:18:44.620Z,8.52
2022-12-22T02:25:24.065Z,8.35
2022-12-22T02:31:44.757Z,9.00
2022-12-22T02:38:11.296Z,8.68
2022-12-22T02:44:39.720Z,8.13
2022-12-22T02:51:06.025Z,8.05
2022-12-22T02:57:26.849Z,7.85
2022-12-22T03:03:47.372Z,7.50
2022-12-22T03:10:07.632Z,7.40
2022-12-22T03:16:28.281Z,7.47
2022-12-22T03:22:48.567Z,8.25
2022-12-22T03:28:50.451Z,8.23
2022-12-22T03:34:52.179Z,8.43
2022-12-22T03:40:54.139Z,9.40
2022-12-22T03:46:55.975Z,9.10
2022-12-22T03:52:57.819Z,9.30
2022-12-22T03:58:59.884Z,8.45
2022-12-22T04:05:01.691Z,7.80
2022-12-22T04:11:22.046Z,7.13
2022-12-22T04:17:23.837Z,6.57
2022-12-22T04:23:25.713Z,7.28
2022-12-22T04:29:27.489Z,7.72
2022-12-22T04:35:29.252Z,7.55
2022-12-22T04:41:31.079Z,6.80
2022-12-22T04:47:32.819Z,7.32
2022-12-22T04:53:34.775Z,6.88
2022-12-22T04:59:36.607Z,7.30
2022-12-22T05:05:38.902Z,7.05
2022-12-22T05:11:40.667Z,7.18
2022-12-22T05:17:42.432Z,7.20
2022-12-22T05:23:44.999Z,6.90
2022-12-22T05:29:46.815Z,7.45
2022-12-22T05:35:48.572Z,7.68
2022-12-22T05:41:50.367Z,7.47
2022-12-22T05:47:52.928Z,7.65
2022-12-22T05:53:54.784Z,7.47
2022-12-22T05:59:56.916Z,6.82
2022-12-22T06:05:59.343Z,7.25
2022-12-22T06:12:01.166Z,6.47
2022-12-22T06:18:02.977Z,6.97
2022-12-22T06:24:06.007Z,6.70
2022-12-22T06:30:08.458Z,7.38
2022-12-22T06:36:10.381Z,7.57
2022-12-22T06:42:30.817Z,6.55
2022-12-22T06:48:32.578Z,5.80
2022-12-22T06:54:34.516Z,7.88
2022-12-22T07:00:36.298Z,5.45
2022-12-22T07:06:38.084Z,5.20
2022-12-22T07:12:39.950Z,4.68
2022-12-22T07:18:43.073Z,5.28
2022-12-22T07:24:44.989Z,4.70
2022-12-22T07:30:47.193Z,5.10
2022-12-22T07:36:49.047Z,4.78
2022-12-22T07:42:55.543Z,5.03
2022-12-22T07:49:15.755Z,4.80
2022-12-22T07:55:17.575Z,5.03
2022-12-22T08:01:19.450Z,5.60
2022-12-22T08:07:21.296Z,5.80
2022-12-22T08:13:23.150Z,5.20
2022-12-22T08:19:25.055Z,5.50
2022-12-22T08:25:26.907Z,5.60
2022-12-22T08:31:30.213Z,6.60
2022-12-22T08:37:41.201Z,5.95
2022-12-22T08:43:43.204Z,4.70
2022-12-22T08:49:44.982Z,3.90
2022-12-22T08:55:54.059Z,3.45
2022-12-22T09:01:56.043Z,2.75
2022-12-22T09:07:57.860Z,2.40
2022-12-22T09:14:01.599Z,2.60
2022-12-22T09:20:05.233Z,1.95
2022-12-22T09:26:14.051Z,2.00
2022-12-22T09:32:15.875Z,2.10
2022-12-22T09:38:17.807Z,1.83
2022-12-22T09:44:37.939Z,1.92
2022-12-22T09:50:41.988Z,2.55
2022-12-22T09:56:43.819Z,4.75
2022-12-22T10:03:07.599Z,6.45
2022-12-22T10:15:45.711Z,5.05
2022-12-22T10:21:47.565Z,4.35
2022-12-22T10:27:51.576Z,4.97
2022-12-22T10:33:56.830Z,5.80
2022-12-22T10:39:58.723Z,5.90
2022-12-22T10:46:01.776Z,5.18
2022-12-22T10:52:29.566Z,6.22
2022-12-22T10:58:31.715Z,12.02
2022-12-22T11:04:33.505Z,7.72
2022-12-22T11:11:23.739Z,7.53
2022-12-22T11:17:48.022Z,10.23
2022-12-22T11:24:16.003Z,8.68
2022-12-22T11:30:24.100Z,7.70
2022-12-22T11:36:34.668Z,7.65
2022-12-22T11:43:14.174Z,7.05
2022-12-22T11:49:21.844Z,3.40
2022-12-22T11:55:37.371Z,3.70
2022-12-22T12:02:16.360Z,4.13
2022-12-22T12:08:42.450Z,4.40
2022-12-22T12:15:06.805Z,4.70
2022-12-22T12:21:29.253Z,4.00
2022-12-22T12:27:49.678Z,4.30
2022-12-22T12:33:54.299Z,4.40
2022-12-22T12:40:33.883Z,4.63
2022-12-22T12:46:50.722Z,4.55
2022-12-22T12:52:52.509Z,4.82
2022-12-22T12:58:55.349Z,5.30
2022-12-22T13:05:00.229Z,5.22
2022-12-22T13:11:11.084Z,5.63
2022-12-22T13:17:50.927Z,7.53
2022-12-22T13:24:23.560Z,6.63
2022-12-22T13:30:21.314Z,5.03
2022-12-22T13:36:27.943Z,5.30
2022-12-22T13:42:31.359Z,5.53
2022-12-22T13:48:44.541Z,6.68
2022-12-22T13:54:48.090Z,7.70
2022-12-22T14:01:02.308Z,7.05
2022-12-22T14:07:16.099Z,7.20
2022-12-22T14:13:22.309Z,7.93
2022-12-22T14:19:25.420Z,7.95
2022-12-22T14:25:39.692Z,7.38
2022-12-22T14:31:54.617Z,7.88
2022-12-22T14:38:17.631Z,7.50
2022-12-22T14:44:24.292Z,7.45
2022-12-22T14:50:28.463Z,7.55
2022-12-22T14:56:30.487Z,7.65
2022-12-22T15:02:40.316Z,8.23
2022-12-22T15:08:43.388Z,8.48
2022-12-22T15:14:49.996Z,7.22
2022-12-22T15:20:52.131Z,7.25
2022-12-22T15:26:54.062Z,10.98
2022-12-22T15:32:57.101Z,19.30
2022-12-22T15:38:58.939Z,10.55
2022-12-22T15:45:00.654Z,10.25
2022-12-22T15:51:04.477Z,9.13
2022-12-22T15:57:10.797Z,8.80
2022-12-22T16:03:13.691Z,10.05
2022-12-22T16:09:23.012Z,10.40
2022-12-22T16:15:24.784Z,10.38
2022-12-22T16:21:31.589Z,10.95
2022-12-22T16:27:34.915Z,11.32
2022-12-22T16:33:37.552Z,11.40
2022-12-22T16:39:39.439Z,13.23
2022-12-22T16:45:44.804Z,13.85
2022-12-22T16:51:50.538Z,16.20
2022-12-22T16:57:52.366Z,14.52
2022-12-22T17:03:55.026Z,15.85
2022-12-22T17:10:01.841Z,17.45
2022-12-22T17:16:05.108Z,16.90
2022-12-22T17:22:29.610Z,18.63
2022-12-22T17:28:32.553Z,19.02
2022-12-22T17:34:34.335Z,18.35
2022-12-22T17:40:36.311Z,19.05
2022-12-22T17:46:38.242Z,19.17
2022-12-22T17:53:13.728Z,18.55
2022-12-22T17:59:15.839Z,18.52
2022-12-22T18:25:37.843Z,17.02
2022-12-22T18:31:47.062Z,16.20
2022-12-22T18:37:52.116Z,16.15
2022-12-22T18:43:54.479Z,16.38
2022-12-22T19:03:39.020Z,16.80
2022-12-22T19:09:43.024Z,12.68
2022-12-22T19:15:45.072Z,14.52
2022-12-22T19:21:49.466Z,11.55
2022-12-22T19:27:54.611Z,12.02
2022-12-22T19:33:59.282Z,12.65
2022-12-22T19:40:01.159Z,12.10
2022-12-22T19:46:04.117Z,12.15
2022-12-22T19:52:06.057Z,12.60
2022-12-22T19:58:18.686Z,12.52
2022-12-22T20:04:20.443Z,13.40
2022-12-22T20:10:23.334Z,13.70
2022-12-22T20:16:25.196Z,13.57
2022-12-22T20:22:27.588Z,13.95
2022-12-22T20:28:33.047Z,14.43
2022-12-22T20:35:02.255Z,15.25
2022-12-22T20:41:09.808Z,15.18
2022-12-22T20:53:59.329Z,14.52
2022-12-22T21:00:07.935Z,14.82
2022-12-22T21:06:36.783Z,15.07
2022-12-22T21:12:40.929Z,14.23
2022-12-22T21:18:45.289Z,15.10
2022-12-22T21:25:01.735Z,13.63
2022-12-22T21:31:04.741Z,13.40
2022-12-22T21:37:15.478Z,15.30
2022-12-22T21:43:18.190Z,13.15
2022-12-22T21:49:23.238Z,13.50
2022-12-22T21:55:31.113Z,13.68
2022-12-22T22:07:38.951Z,12.80
2022-12-22T22:13:40.755Z,13.05
2022-12-22T22:19:42.588Z,11.85
2022-12-22T22:25:45.031Z,11.00
2022-12-22T22:31:47.570Z,12.10
2022-12-22T22:37:53.270Z,12.68
2022-12-22T22:43:57.842Z,11.90
2022-12-22T22:50:32.861Z,12.00
2022-12-22T22:56:35.415Z,11.18
2022-12-22T23:02:38.305Z,11.60
2022-12-22T23:08:40.292Z,9.48
2022-12-22T23:14:42.173Z,10.90
2022-12-22T23:20:47.002Z,9.88
2022-12-22T23:26:49.273Z,8.43
2022-12-22T23:32:54.151Z,8.35
2022-12-22T23:38:55.974Z,7.90
2022-12-22T23:44:58.155Z,6.88
2022-12-22T23:50:59.895Z,7.47
2022-12-22T23:57:01.639Z,7.15
